sensor_id;sensor_type;location;lat;lon;timestamp;P1;durP1;ratioP1;P2;durP2;ratioP2
17890;SDS011;9071;48.220;14.480;2023-09-19T00:04:07;2.97;;;1.50;;
17890;SDS011;9071;48.220;14.480;2023-09-19T00:09:13;2.28;;;1.42;;
17890;SDS011;9071;48.220;14.480;2023-09-19T00:14:18;3.53;;;1.48;;
17890;SDS011;9071;48.220;14.480;2023-09-19T00:19:20;1.77;;;1.23;;
17890;SDS011;9071;48.220;14.480;2023-09-19T00:24:25;3.72;;;1.33;;
17890;SDS011;9071;48.220;14.480;2023-09-19T00:29:34;2.80;;;1.45;;
17890;SDS011;9071;48.220;14.480;2023-09-19T00:34:38;2.55;;;1.35;;
17890;SDS011;9071;48.220;14.480;2023-09-19T00:39:41;2.65;;;1.30;;
17890;SDS011;9071;48.220;14.480;2023-09-19T00:44:48;4.28;;;1.48;;
17890;SDS011;9071;48.220;14.480;2023-09-19T00:49:53;3.22;;;1.20;;
17890;SDS011;9071;48.220;14.480;2023-09-19T00:54:57;2.75;;;1.40;;
17890;SDS011;9071;48.220;14.480;2023-09-19T01:00:06;2.13;;;1.50;;
17890;SDS011;9071;48.220;14.480;2023-09-19T01:05:17;2.92;;;1.48;;
17890;SDS011;9071;48.220;14.480;2023-09-19T01:10:22;2.55;;;1.30;;
17890;SDS011;9071;48.220;14.480;2023-09-19T01:15:32;2.45;;;1.67;;
17890;SDS011;9071;48.220;14.480;2023-09-19T01:20:51;3.13;;;1.60;;
17890;SDS011;9071;48.220;14.480;2023-09-19T01:26:18;3.53;;;1.85;;
17890;SDS011;9071;48.220;14.480;2023-09-19T01:31:33;2.90;;;2.08;;
17890;SDS011;9071;48.220;14.480;2023-09-19T01:36:40;5.35;;;2.00;;
17890;SDS011;9071;48.220;14.480;2023-09-19T01:41:48;4.32;;;1.90;;
17890;SDS011;9071;48.220;14.480;2023-09-19T01:46:58;2.53;;;2.00;;
17890;SDS011;9071;48.220;14.480;2023-09-19T01:52:12;3.45;;;2.08;;
17890;SDS011;9071;48.220;14.480;2023-09-19T01:57:22;4.80;;;2.13;;
17890;SDS011;9071;48.220;14.480;2023-09-19T02:02:33;5.65;;;2.60;;
17890;SDS011;9071;48.220;14.480;2023-09-19T02:07:39;4.43;;;2.40;;
17890;SDS011;9071;48.220;14.480;2023-09-19T02:12:41;7.35;;;2.53;;
17890;SDS011;9071;48.220;14.480;2023-09-19T02:17:45;4.68;;;2.63;;
17890;SDS011;9071;48.220;14.480;2023-09-19T02:22:49;3.58;;;2.22;;
17890;SDS011;9071;48.220;14.480;2023-09-19T02:28:08;6.30;;;2.42;;
17890;SDS011;9071;48.220;14.480;2023-09-19T02:33:12;5.20;;;2.65;;
17890;SDS011;9071;48.220;14.480;2023-09-19T02:38:15;5.32;;;3.00;;
17890;SDS011;9071;48.220;14.480;2023-09-19T02:43:25;8.10;;;3.53;;
17890;SDS011;9071;48.220;14.480;2023-09-19T02:48:29;8.60;;;3.40;;
17890;SDS011;9071;48.220;14.480;2023-09-19T02:53:32;3.58;;;2.60;;
17890;SDS011;9071;48.220;14.480;2023-09-19T02:58:36;9.23;;;2.92;;
17890;SDS011;9071;48.220;14.480;2023-09-19T03:03:39;5.15;;;2.97;;
17890;SDS011;9071;48.220;14.480;2023-09-19T03:09:17;4.70;;;2.60;;
17890;SDS011;9071;48.220;14.480;2023-09-19T03:14:16;4.97;;;2.50;;
17890;SDS011;9071;48.220;14.480;2023-09-19T03:19:21;7.30;;;3.00;;
17890;SDS011;9071;48.220;14.480;2023-09-19T03:24:23;4.55;;;2.75;;
17890;SDS011;9071;48.220;14.480;2023-09-19T03:29:26;5.65;;;3.15;;
17890;SDS011;9071;48.220;14.480;2023-09-19T03:34:30;5.90;;;3.40;;
17890;SDS011;9071;48.220;14.480;2023-09-19T03:39:32;5.32;;;2.65;;
17890;SDS011;9071;48.220;14.480;2023-09-19T03:44:34;4.35;;;3.03;;
17890;SDS011;9071;48.220;14.480;2023-09-19T03:49:37;8.60;;;2.95;;
17890;SDS011;9071;48.220;14.480;2023-09-19T03:54:40;4.72;;;3.22;;
17890;SDS011;9071;48.220;14.480;2023-09-19T03:59:43;5.35;;;3.03;;
17890;SDS011;9071;48.220;14.480;2023-09-19T04:04:48;4.97;;;2.95;;
17890;SDS011;9071;48.220;14.480;2023-09-19T04:09:52;5.88;;;3.60;;
17890;SDS011;9071;48.220;14.480;2023-09-19T04:14:55;7.75;;;4.05;;
17890;SDS011;9071;48.220;14.480;2023-09-19T04:19:59;5.85;;;3.78;;
17890;SDS011;9071;48.220;14.480;2023-09-19T04:25:02;6.82;;;3.50;;
17890;SDS011;9071;48.220;14.480;2023-09-19T04:30:04;6.63;;;3.47;;
17890;SDS011;9071;48.220;14.480;2023-09-19T04:35:12;9.20;;;3.47;;
17890;SDS011;9071;48.220;14.480;2023-09-19T04:40:15;5.38;;;2.95;;
17890;SDS011;9071;48.220;14.480;2023-09-19T04:45:20;5.45;;;3.50;;
17890;SDS011;9071;48.220;14.480;2023-09-19T04:50:26;7.20;;;3.72;;
17890;SDS011;9071;48.220;14.480;2023-09-19T04:55:28;7.55;;;3.17;;
17890;SDS011;9071;48.220;14.480;2023-09-19T05:00:30;5.53;;;3.75;;
17890;SDS011;9071;48.220;14.480;2023-09-19T05:05:36;7.18;;;3.05;;
17890;SDS011;9071;48.220;14.480;2023-09-19T05:10:39;8.60;;;3.50;;
17890;SDS011;9071;48.220;14.480;2023-09-19T05:15:41;7.85;;;3.80;;
17890;SDS011;9071;48.220;14.480;2023-09-19T05:20:45;10.70;;;4.15;;
17890;SDS011;9071;48.220;14.480;2023-09-19T05:25:49;8.98;;;4.40;;
17890;SDS011;9071;48.220;14.480;2023-09-19T05:30:53;8.85;;;3.65;;
17890;SDS011;9071;48.220;14.480;2023-09-19T05:35:56;6.72;;;3.63;;
17890;SDS011;9071;48.220;14.480;2023-09-19T05:40:58;7.00;;;3.65;;
17890;SDS011;9071;48.220;14.480;2023-09-19T05:46:02;5.85;;;3.85;;
17890;SDS011;9071;48.220;14.480;2023-09-19T05:51:05;6.97;;;3.97;;
17890;SDS011;9071;48.220;14.480;2023-09-19T05:56:08;7.30;;;3.78;;
17890;SDS011;9071;48.220;14.480;2023-09-19T06:01:12;6.38;;;3.30;;
17890;SDS011;9071;48.220;14.480;2023-09-19T06:06:20;3.53;;;2.85;;
17890;SDS011;9071;48.220;14.480;2023-09-19T06:11:24;7.63;;;2.92;;
17890;SDS011;9071;48.220;14.480;2023-09-19T06:16:26;5.05;;;2.53;;
17890;SDS011;9071;48.220;14.480;2023-09-19T06:21:30;3.90;;;2.85;;
17890;SDS011;9071;48.220;14.480;2023-09-19T06:26:32;7.20;;;3.35;;
17890;SDS011;9071;48.220;14.480;2023-09-19T06:31:34;4.72;;;2.90;;
17890;SDS011;9071;48.220;14.480;2023-09-19T06:36:38;7.00;;;3.38;;
17890;SDS011;9071;48.220;14.480;2023-09-19T06:41:42;4.07;;;3.00;;
17890;SDS011;9071;48.220;14.480;2023-09-19T06:46:47;5.10;;;3.05;;
17890;SDS011;9071;48.220;14.480;2023-09-19T06:51:56;4.65;;;2.30;;
17890;SDS011;9071;48.220;14.480;2023-09-19T06:57:05;5.10;;;2.35;;
17890;SDS011;9071;48.220;14.480;2023-09-19T07:02:11;2.63;;;1.70;;
17890;SDS011;9071;48.220;14.480;2023-09-19T07:07:19;3.35;;;1.85;;
17890;SDS011;9071;48.220;14.480;2023-09-19T07:12:25;4.43;;;2.47;;
17890;SDS011;9071;48.220;14.480;2023-09-19T07:17:33;5.05;;;1.95;;
17890;SDS011;9071;48.220;14.480;2023-09-19T07:22:41;3.30;;;2.13;;
17890;SDS011;9071;48.220;14.480;2023-09-19T07:27:48;10.70;;;2.47;;
17890;SDS011;9071;48.220;14.480;2023-09-19T07:32:56;4.57;;;2.08;;
17890;SDS011;9071;48.220;14.480;2023-09-19T07:38:04;13.10;;;2.50;;
17890;SDS011;9071;48.220;14.480;2023-09-19T07:43:07;4.45;;;2.35;;
17890;SDS011;9071;48.220;14.480;2023-09-19T07:48:12;4.88;;;1.98;;
17890;SDS011;9071;48.220;14.480;2023-09-19T07:53:19;7.30;;;2.05;;
17890;SDS011;9071;48.220;14.480;2023-09-19T07:58:22;4.20;;;2.38;;
17890;SDS011;9071;48.220;14.480;2023-09-19T08:03:25;3.25;;;2.00;;
17890;SDS011;9071;48.220;14.480;2023-09-19T08:08:32;6.43;;;2.10;;
17890;SDS011;9071;48.220;14.480;2023-09-19T08:13:38;4.47;;;2.03;;
17890;SDS011;9071;48.220;14.480;2023-09-19T08:18:49;4.85;;;2.17;;
17890;SDS011;9071;48.220;14.480;2023-09-19T08:23:59;9.25;;;2.38;;
17890;SDS011;9071;48.220;14.480;2023-09-19T08:29:06;4.57;;;2.05;;
17890;SDS011;9071;48.220;14.480;2023-09-19T08:34:13;6.57;;;1.90;;
17890;SDS011;9071;48.220;14.480;2023-09-19T08:39:19;4.28;;;1.95;;
17890;SDS011;9071;48.220;14.480;2023-09-19T08:44:26;6.97;;;1.98;;
17890;SDS011;9071;48.220;14.480;2023-09-19T08:49:53;5.25;;;2.30;;
17890;SDS011;9071;48.220;14.480;2023-09-19T08:55:06;3.78;;;1.75;;
17890;SDS011;9071;48.220;14.480;2023-09-19T09:00:27;3.55;;;1.77;;
17890;SDS011;9071;48.220;14.480;2023-09-19T09:05:30;6.15;;;1.92;;
17890;SDS011;9071;48.220;14.480;2023-09-19T09:10:37;4.28;;;1.98;;
17890;SDS011;9071;48.220;14.480;2023-09-19T09:15:44;5.78;;;2.10;;
17890;SDS011;9071;48.220;14.480;2023-09-19T09:20:48;3.80;;;2.20;;
17890;SDS011;9071;48.220;14.480;2023-09-19T09:25:59;5.50;;;1.90;;
17890;SDS011;9071;48.220;14.480;2023-09-19T09:31:04;7.20;;;2.10;;
17890;SDS011;9071;48.220;14.480;2023-09-19T09:36:37;4.13;;;1.83;;
17890;SDS011;9071;48.220;14.480;2023-09-19T09:41:47;3.80;;;1.90;;
17890;SDS011;9071;48.220;14.480;2023-09-19T09:47:00;4.70;;;2.03;;
17890;SDS011;9071;48.220;14.480;2023-09-19T09:52:19;3.70;;;1.90;;
17890;SDS011;9071;48.220;14.480;2023-09-19T09:57:29;2.95;;;1.40;;
17890;SDS011;9071;48.220;14.480;2023-09-19T10:02:43;5.88;;;1.63;;
17890;SDS011;9071;48.220;14.480;2023-09-19T10:07:47;3.83;;;1.30;;
17890;SDS011;9071;48.220;14.480;2023-09-19T10:12:52;5.03;;;1.40;;
17890;SDS011;9071;48.220;14.480;2023-09-19T10:18:04;3.63;;;1.40;;
17890;SDS011;9071;48.220;14.480;2023-09-19T10:23:09;2.83;;;1.52;;
17890;SDS011;9071;48.220;14.480;2023-09-19T10:28:15;4.75;;;1.45;;
17890;SDS011;9071;48.220;14.480;2023-09-19T10:33:22;2.55;;;1.40;;
17890;SDS011;9071;48.220;14.480;2023-09-19T10:38:26;6.07;;;1.40;;
17890;SDS011;9071;48.220;14.480;2023-09-19T10:43:33;4.90;;;1.10;;
17890;SDS011;9071;48.220;14.480;2023-09-19T10:48:38;2.95;;;1.83;;
17890;SDS011;9071;48.220;14.480;2023-09-19T10:53:45;2.58;;;1.67;;
17890;SDS011;9071;48.220;14.480;2023-09-19T10:58:53;2.42;;;1.38;;
17890;SDS011;9071;48.220;14.480;2023-09-19T11:04:21;2.42;;;1.60;;
17890;SDS011;9071;48.220;14.480;2023-09-19T11:09:42;2.40;;;1.40;;
17890;SDS011;9071;48.220;14.480;2023-09-19T11:14:47;2.00;;;1.30;;
17890;SDS011;9071;48.220;14.480;2023-09-19T11:25:43;3.30;;;1.52;;
17890;SDS011;9071;48.220;14.480;2023-09-19T11:30:52;2.70;;;1.27;;
17890;SDS011;9071;48.220;14.480;2023-09-19T11:36:01;2.40;;;1.20;;
17890;SDS011;9071;48.220;14.480;2023-09-19T11:46:52;3.33;;;1.30;;
17890;SDS011;9071;48.220;14.480;2023-09-19T11:51:56;1.80;;;1.27;;
17890;SDS011;9071;48.220;14.480;2023-09-19T11:57:01;1.77;;;1.40;;
17890;SDS011;9071;48.220;14.480;2023-09-19T12:02:05;1.30;;;1.10;;
17890;SDS011;9071;48.220;14.480;2023-09-19T12:07:09;3.08;;;1.33;;
17890;SDS011;9071;48.220;14.480;2023-09-19T12:12:19;1.92;;;1.45;;
17890;SDS011;9071;48.220;14.480;2023-09-19T12:17:22;1.92;;;1.50;;
17890;SDS011;9071;48.220;14.480;2023-09-19T12:22:24;4.82;;;1.58;;
17890;SDS011;9071;48.220;14.480;2023-09-19T12:27:26;3.97;;;1.40;;
17890;SDS011;9071;48.220;14.480;2023-09-19T12:32:36;3.15;;;1.45;;
17890;SDS011;9071;48.220;14.480;2023-09-19T12:37:42;3.05;;;1.70;;
17890;SDS011;9071;48.220;14.480;2023-09-19T12:42:46;6.70;;;2.33;;
17890;SDS011;9071;48.220;14.480;2023-09-19T12:53:24;1.15;;;1.00;;
17890;SDS011;9071;48.220;14.480;2023-09-19T12:58:29;0.85;;;0.80;;
17890;SDS011;9071;48.220;14.480;2023-09-19T13:03:36;1.73;;;0.80;;
17890;SDS011;9071;48.220;14.480;2023-09-19T13:08:39;2.47;;;1.15;;
17890;SDS011;9071;48.220;14.480;2023-09-19T13:13:43;2.00;;;1.13;;
17890;SDS011;9071;48.220;14.480;2023-09-19T13:18:50;1.95;;;1.08;;
17890;SDS011;9071;48.220;14.480;2023-09-19T13:23:54;2.55;;;0.98;;
17890;SDS011;9071;48.220;14.480;2023-09-19T13:28:59;1.20;;;0.93;;
17890;SDS011;9071;48.220;14.480;2023-09-19T13:34:02;2.55;;;1.00;;
17890;SDS011;9071;48.220;14.480;2023-09-19T13:39:04;2.10;;;1.08;;
17890;SDS011;9071;48.220;14.480;2023-09-19T13:44:09;2.30;;;1.10;;
17890;SDS011;9071;48.220;14.480;2023-09-19T13:49:13;1.40;;;0.88;;
17890;SDS011;9071;48.220;14.480;2023-09-19T13:54:15;1.50;;;1.02;;
17890;SDS011;9071;48.220;14.480;2023-09-19T13:59:17;2.95;;;0.95;;
17890;SDS011;9071;48.220;14.480;2023-09-19T14:04:21;3.75;;;1.00;;
17890;SDS011;9071;48.220;14.480;2023-09-19T14:09:23;5.53;;;1.33;;
17890;SDS011;9071;48.220;14.480;2023-09-19T14:14:25;4.10;;;1.10;;
17890;SDS011;9071;48.220;14.480;2023-09-19T14:19:29;4.75;;;1.10;;
17890;SDS011;9071;48.220;14.480;2023-09-19T14:24:31;3.63;;;1.00;;
17890;SDS011;9071;48.220;14.480;2023-09-19T14:29:33;2.95;;;1.10;;
17890;SDS011;9071;48.220;14.480;2023-09-19T14:34:36;2.53;;;1.15;;
17890;SDS011;9071;48.220;14.480;2023-09-19T14:39:42;2.25;;;1.05;;
17890;SDS011;9071;48.220;14.480;2023-09-19T14:44:45;1.67;;;0.98;;
17890;SDS011;9071;48.220;14.480;2023-09-19T14:49:49;5.57;;;1.52;;
17890;SDS011;9071;48.220;14.480;2023-09-19T14:54:51;4.45;;;1.40;;
17890;SDS011;9071;48.220;14.480;2023-09-19T14:59:53;3.53;;;1.25;;
17890;SDS011;9071;48.220;14.480;2023-09-19T15:04:56;2.72;;;1.20;;
17890;SDS011;9071;48.220;14.480;2023-09-19T15:09:58;2.60;;;1.13;;
17890;SDS011;9071;48.220;14.480;2023-09-19T15:15:00;2.00;;;1.13;;
17890;SDS011;9071;48.220;14.480;2023-09-19T15:20:07;2.88;;;1.30;;
17890;SDS011;9071;48.220;14.480;2023-09-19T15:25:09;2.63;;;1.35;;
17890;SDS011;9071;48.220;14.480;2023-09-19T15:30:11;1.95;;;1.20;;
17890;SDS011;9071;48.220;14.480;2023-09-19T15:35:16;3.13;;;1.25;;
17890;SDS011;9071;48.220;14.480;2023-09-19T15:40:18;1.77;;;1.30;;
17890;SDS011;9071;48.220;14.480;2023-09-19T15:45:24;2.63;;;1.30;;
17890;SDS011;9071;48.220;14.480;2023-09-19T15:50:28;3.35;;;1.40;;
17890;SDS011;9071;48.220;14.480;2023-09-19T15:55:30;2.58;;;1.50;;
17890;SDS011;9071;48.220;14.480;2023-09-19T16:00:32;2.25;;;1.30;;
17890;SDS011;9071;48.220;14.480;2023-09-19T16:05:37;3.85;;;1.48;;
17890;SDS011;9071;48.220;14.480;2023-09-19T16:10:39;3.92;;;1.77;;
17890;SDS011;9071;48.220;14.480;2023-09-19T16:15:42;1.58;;;1.20;;
17890;SDS011;9071;48.220;14.480;2023-09-19T16:20:46;4.90;;;1.60;;
17890;SDS011;9071;48.220;14.480;2023-09-19T16:25:48;2.67;;;1.30;;
17890;SDS011;9071;48.220;14.480;2023-09-19T16:31:01;3.63;;;1.67;;
17890;SDS011;9071;48.220;14.480;2023-09-19T16:36:08;2.30;;;1.40;;
17890;SDS011;9071;48.220;14.480;2023-09-19T16:41:11;2.35;;;1.27;;
17890;SDS011;9071;48.220;14.480;2023-09-19T16:46:13;2.03;;;0.98;;
17890;SDS011;9071;48.220;14.480;2023-09-19T16:51:18;2.65;;;1.10;;
17890;SDS011;9071;48.220;14.480;2023-09-19T16:56:27;1.85;;;0.90;;
17890;SDS011;9071;48.220;14.480;2023-09-19T17:01:59;1.90;;;1.00;;
17890;SDS011;9071;48.220;14.480;2023-09-19T17:07:05;3.83;;;1.20;;
17890;SDS011;9071;48.220;14.480;2023-09-19T17:12:07;2.75;;;1.20;;
17890;SDS011;9071;48.220;14.480;2023-09-19T17:17:10;1.80;;;1.50;;
17890;SDS011;9071;48.220;14.480;2023-09-19T17:22:16;5.38;;;1.98;;
17890;SDS011;9071;48.220;14.480;2023-09-19T17:27:20;1.98;;;1.70;;
17890;SDS011;9071;48.220;14.480;2023-09-19T17:32:23;4.65;;;2.10;;
17890;SDS011;9071;48.220;14.480;2023-09-19T17:37:27;4.95;;;2.20;;
17890;SDS011;9071;48.220;14.480;2023-09-19T17:42:29;3.50;;;2.60;;
17890;SDS011;9071;48.220;14.480;2023-09-19T17:47:31;5.05;;;2.55;;
17890;SDS011;9071;48.220;14.480;2023-09-19T17:52:35;6.57;;;3.25;;
17890;SDS011;9071;48.220;14.480;2023-09-19T17:57:37;8.27;;;4.35;;
17890;SDS011;9071;48.220;14.480;2023-09-19T18:02:40;5.78;;;2.92;;
17890;SDS011;9071;48.220;14.480;2023-09-19T18:07:44;4.53;;;3.00;;
17890;SDS011;9071;48.220;14.480;2023-09-19T18:12:48;5.32;;;3.10;;
17890;SDS011;9071;48.220;14.480;2023-09-19T18:17:51;8.05;;;3.67;;
17890;SDS011;9071;48.220;14.480;2023-09-19T18:22:54;5.80;;;3.75;;
17890;SDS011;9071;48.220;14.480;2023-09-19T18:27:56;6.40;;;4.10;;
17890;SDS011;9071;48.220;14.480;2023-09-19T18:32:59;4.03;;;3.17;;
17890;SDS011;9071;48.220;14.480;2023-09-19T18:38:03;7.15;;;3.97;;
17890;SDS011;9071;48.220;14.480;2023-09-19T18:43:05;7.55;;;4.43;;
17890;SDS011;9071;48.220;14.480;2023-09-19T18:48:07;6.03;;;3.92;;
17890;SDS011;9071;48.220;14.480;2023-09-19T18:53:11;5.97;;;4.03;;
17890;SDS011;9071;48.220;14.480;2023-09-19T18:58:13;13.55;;;6.95;;
17890;SDS011;9071;48.220;14.480;2023-09-19T19:03:15;9.38;;;6.57;;
17890;SDS011;9071;48.220;14.480;2023-09-19T19:08:20;14.25;;;7.55;;
17890;SDS011;9071;48.220;14.480;2023-09-19T19:13:22;8.27;;;5.20;;
17890;SDS011;9071;48.220;14.480;2023-09-19T19:18:24;6.40;;;5.20;;
17890;SDS011;9071;48.220;14.480;2023-09-19T19:23:30;7.10;;;4.78;;
17890;SDS011;9071;48.220;14.480;2023-09-19T19:28:32;10.77;;;5.82;;
17890;SDS011;9071;48.220;14.480;2023-09-19T19:33:36;11.98;;;7.28;;
17890;SDS011;9071;48.220;14.480;2023-09-19T19:38:44;10.00;;;5.97;;
17890;SDS011;9071;48.220;14.480;2023-09-19T19:43:47;11.27;;;7.63;;
17890;SDS011;9071;48.220;14.480;2023-09-19T19:48:49;15.80;;;8.43;;
17890;SDS011;9071;48.220;14.480;2023-09-19T19:53:53;12.80;;;8.38;;
17890;SDS011;9071;48.220;14.480;2023-09-19T19:58:56;11.60;;;8.50;;
17890;SDS011;9071;48.220;14.480;2023-09-19T20:03:59;14.32;;;10.25;;
17890;SDS011;9071;48.220;14.480;2023-09-19T20:09:02;18.52;;;10.38;;
17890;SDS011;9071;48.220;14.480;2023-09-19T20:14:06;13.60;;;10.20;;
17890;SDS011;9071;48.220;14.480;2023-09-19T20:19:08;11.77;;;8.50;;
17890;SDS011;9071;48.220;14.480;2023-09-19T20:24:12;10.97;;;8.50;;
17890;SDS011;9071;48.220;14.480;2023-09-19T20:29:19;15.27;;;9.98;;
17890;SDS011;9071;48.220;14.480;2023-09-19T20:34:22;13.47;;;9.93;;
17890;SDS011;9071;48.220;14.480;2023-09-19T20:39:27;18.23;;;10.65;;
17890;SDS011;9071;48.220;14.480;2023-09-19T20:44:29;16.65;;;10.95;;
17890;SDS011;9071;48.220;14.480;2023-09-19T20:49:31;12.27;;;9.43;;
17890;SDS011;9071;48.220;14.480;2023-09-19T20:54:35;13.70;;;8.30;;
17890;SDS011;9071;48.220;14.480;2023-09-19T20:59:37;10.47;;;7.93;;
17890;SDS011;9071;48.220;14.480;2023-09-19T21:04:39;13.03;;;7.97;;
17890;SDS011;9071;48.220;14.480;2023-09-19T21:09:42;12.07;;;8.83;;
17890;SDS011;9071;48.220;14.480;2023-09-19T21:14:44;12.17;;;8.30;;
17890;SDS011;9071;48.220;14.480;2023-09-19T21:19:47;16.03;;;9.20;;
17890;SDS011;9071;48.220;14.480;2023-09-19T21:24:50;12.00;;;7.60;;
17890;SDS011;9071;48.220;14.480;2023-09-19T21:29:54;10.07;;;7.70;;
17890;SDS011;9071;48.220;14.480;2023-09-19T21:34:56;12.90;;;8.43;;
17890;SDS011;9071;48.220;14.480;2023-09-19T21:40:01;9.87;;;8.17;;
17890;SDS011;9071;48.220;14.480;2023-09-19T21:45:04;10.80;;;7.80;;
17890;SDS011;9071;48.220;14.480;2023-09-19T21:50:08;9.53;;;6.70;;
17890;SDS011;9071;48.220;14.480;2023-09-19T21:55:12;11.60;;;8.97;;
17890;SDS011;9071;48.220;14.480;2023-09-19T22:00:15;13.33;;;7.93;;
17890;SDS011;9071;48.220;14.480;2023-09-19T22:05:35;14.47;;;9.93;;
17890;SDS011;9071;48.220;14.480;2023-09-19T22:10:42;12.20;;;8.57;;
17890;SDS011;9071;48.220;14.480;2023-09-19T22:15:46;17.00;;;9.60;;
17890;SDS011;9071;48.220;14.480;2023-09-19T22:20:48;83.73;;;13.27;;
17890;SDS011;9071;48.220;14.480;2023-09-19T22:25:53;132.07;;;17.63;;
17890;SDS011;9071;48.220;14.480;2023-09-19T22:30:58;46.90;;;13.57;;
17890;SDS011;9071;48.220;14.480;2023-09-19T22:36:09;33.90;;;13.60;;
17890;SDS011;9071;48.220;14.480;2023-09-19T22:41:13;38.87;;;13.83;;
17890;SDS011;9071;48.220;14.480;2023-09-19T22:46:17;26.80;;;12.90;;
17890;SDS011;9071;48.220;14.480;2023-09-19T22:51:21;26.03;;;13.63;;
17890;SDS011;9071;48.220;14.480;2023-09-19T22:56:37;20.30;;;12.90;;
17890;SDS011;9071;48.220;14.480;2023-09-19T23:01:40;22.90;;;12.73;;
17890;SDS011;9071;48.220;14.480;2023-09-19T23:06:43;26.83;;;13.07;;
17890;SDS011;9071;48.220;14.480;2023-09-19T23:11:51;15.57;;;11.50;;
17890;SDS011;9071;48.220;14.480;2023-09-19T23:16:56;19.30;;;11.20;;
17890;SDS011;9071;48.220;14.480;2023-09-19T23:22:00;20.83;;;13.13;;
17890;SDS011;9071;48.220;14.480;2023-09-19T23:27:10;25.87;;;13.20;;
17890;SDS011;9071;48.220;14.480;2023-09-19T23:32:24;64.10;;;15.70;;
17890;SDS011;9071;48.220;14.480;2023-09-19T23:37:26;63.67;;;15.87;;
17890;SDS011;9071;48.220;14.480;2023-09-19T23:42:30;43.50;;;14.83;;
17890;SDS011;9071;48.220;14.480;2023-09-19T23:47:32;68.43;;;16.60;;
17890;SDS011;9071;48.220;14.480;2023-09-19T23:52:36;57.90;;;14.90;;
17890;SDS011;9071;48.220;14.480;2023-09-19T23:57:39;34.30;;;13.07;;
